Terminal Aerodrome Forecast
Issued by NWS Goodland, KS

Home | Current Version | Previous Version | Text Only | Print | Product List | Glossary On
Versions: 1 2 3 4 5 6 7 8 9 10 11 12 13 14 15 16 17 18
714
FTUS43 KGLD 181720
TAFGLD
TAF
KGLD 181720Z 1818/1918 29005KT P6SM FEW200
     FM182100 21009KT P6SM FEW150
     FM190300 22006KT 3SM BR FEW020
     FM191000 25006KT 6SM BR SCT040
     FM191400 29006KT P6SM SCT150=

USA.gov is the U.S. government's official web portal to all federal, state and local government web resources and services.